createdAt,value
2019-04-04T00:01:16.726Z,8.07
2019-04-04T00:04:04.026Z,7.97
2019-04-04T00:06:51.549Z,7.83
2019-04-04T00:09:39.079Z,7.74
2019-04-04T00:12:08.069Z,7.80
2019-04-04T00:14:37.611Z,7.87
2019-04-04T00:17:25.143Z,7.95
2019-04-04T00:22:27.475Z,7.87
2019-04-04T00:25:15.016Z,7.96
2019-04-04T00:28:02.803Z,8.09
2019-04-04T00:30:50.445Z,8.20
2019-04-04T00:33:37.957Z,8.33
2019-04-04T00:36:25.674Z,8.46
2019-04-04T00:39:13.308Z,8.69
2019-04-04T00:41:42.984Z,8.66
2019-04-04T00:44:12.085Z,8.51
2019-04-04T00:46:40.478Z,8.48
2019-04-04T00:49:08.872Z,8.47
2019-04-04T00:51:39.057Z,8.43
2019-04-04T00:54:07.377Z,8.58
2019-04-04T00:56:35.767Z,8.74
2019-04-04T00:59:04.166Z,8.85
2019-04-04T01:01:51.812Z,8.82
2019-04-04T01:04:20.205Z,8.82
2019-04-04T01:07:07.837Z,8.82
2019-04-04T01:09:55.487Z,8.79
2019-04-04T01:12:23.879Z,8.95
2019-04-04T01:14:52.293Z,8.86
2019-04-04T01:17:39.924Z,8.79
2019-04-04T01:20:50.410Z,8.79
2019-04-04T01:23:37.614Z,8.85
2019-04-04T01:26:25.122Z,8.87
2019-04-04T01:29:12.650Z,8.72
2019-04-04T01:32:00.151Z,8.72
2019-04-04T01:34:28.553Z,8.55
2019-04-04T01:36:57.149Z,8.78
2019-04-04T01:39:27.071Z,8.68
2019-04-04T01:41:55.472Z,8.60
2019-04-04T01:44:43.157Z,8.49
2019-04-04T01:47:11.532Z,8.22
2019-04-04T01:49:39.935Z,8.31
2019-04-04T01:52:08.335Z,8.21
2019-04-04T01:54:36.732Z,8.17
2019-04-04T01:57:07.703Z,8.07
2019-04-04T02:02:09.608Z,8.38
2019-04-04T02:07:12.042Z,8.47
2019-04-04T02:09:43.252Z,8.65
2019-04-04T02:14:58.013Z,8.44
2019-04-04T02:17:26.419Z,8.55
2019-04-04T02:20:14.060Z,8.55
2019-04-04T02:22:42.453Z,8.70
2019-04-04T02:25:50.771Z,8.85
2019-04-04T02:33:42.211Z,8.82
2019-04-04T02:36:10.617Z,8.83
2019-04-04T02:38:39.008Z,8.71
2019-04-04T02:41:26.655Z,8.67
2019-04-04T02:44:14.167Z,8.68
2019-04-04T02:47:01.829Z,8.68
2019-04-04T02:49:49.465Z,8.61
2019-04-04T02:52:37.004Z,8.70
2019-04-04T02:55:45.283Z,8.59
2019-04-04T02:58:15.094Z,8.55
2019-04-04T03:01:08.868Z,8.51
2019-04-04T03:03:41.082Z,8.57
2019-04-04T03:06:07.996Z,8.57
2019-04-04T03:08:43.169Z,8.76
2019-04-04T03:11:13.736Z,8.74
2019-04-04T03:13:49.282Z,8.60
2019-04-04T03:16:21.473Z,8.43
2019-04-04T03:18:57.575Z,8.43
2019-04-04T03:21:29.791Z,8.60
2019-04-04T03:24:06.554Z,8.66
2019-04-04T03:26:42.070Z,8.72
2019-04-04T03:29:10.868Z,8.59
2019-04-04T03:31:44.004Z,8.75
2019-04-04T03:34:28.178Z,8.68
2019-04-04T03:36:47.120Z,8.62
2019-04-04T03:39:19.720Z,8.81
2019-04-04T03:41:48.671Z,8.90
2019-04-04T03:44:20.743Z,8.86
2019-04-04T03:46:49.781Z,8.87
2019-04-04T03:49:23.425Z,8.84
2019-04-04T03:51:53.414Z,8.92
2019-04-04T03:54:27.159Z,9.02
2019-04-04T03:56:57.367Z,8.94
2019-04-04T03:59:33.648Z,8.94
2019-04-04T04:02:04.307Z,8.94
2019-04-04T04:04:45.784Z,8.72
2019-04-04T04:07:19.991Z,8.64
2019-04-04T04:09:49.660Z,8.69
2019-04-04T04:12:27.304Z,8.65
2019-04-04T04:15:13.230Z,8.54
2019-04-04T04:18:26.772Z,8.57
2019-04-04T04:24:02.868Z,8.62
2019-04-04T04:26:56.886Z,8.84
2019-04-04T04:29:29.830Z,8.93
2019-04-04T04:31:57.445Z,8.95
2019-04-04T04:34:39.577Z,9.09
2019-04-04T04:37:20.506Z,9.09
2019-04-04T04:42:48.920Z,9.05
2019-04-04T04:45:36.541Z,9.05
2019-04-04T04:48:05.038Z,9.06
2019-04-04T04:50:52.699Z,9.15
2019-04-04T04:53:21.102Z,9.08
2019-04-04T04:58:56.070Z,9.14
2019-04-04T05:01:43.807Z,9.15
2019-04-04T05:04:12.158Z,8.89
2019-04-04T05:06:40.591Z,8.63
2019-04-04T05:09:09.004Z,8.54
2019-04-04T05:11:37.418Z,8.55
2019-04-04T05:14:05.858Z,8.58
2019-04-04T05:16:35.878Z,8.42
2019-04-04T05:19:04.665Z,8.20
2019-04-04T05:21:52.393Z,8.20
2019-04-04T05:24:40.139Z,8.42
2019-04-04T05:27:27.827Z,8.46
2019-04-04T05:29:56.210Z,8.61
2019-04-04T05:32:43.905Z,8.66
2019-04-04T05:35:15.060Z,8.36
2019-04-04T05:37:42.500Z,8.22
2019-04-04T05:40:50.785Z,8.04
2019-04-04T05:43:19.234Z,8.01
2019-04-04T05:46:06.787Z,8.14
2019-04-04T05:51:09.575Z,8.13
2019-04-04T05:56:14.845Z,7.91
2019-04-04T05:58:42.250Z,8.07
2019-04-04T06:03:59.743Z,8.05
2019-04-04T06:06:47.400Z,8.01
2019-04-04T06:14:56.383Z,7.90
2019-04-04T06:17:44.030Z,8.11
2019-04-04T06:20:52.341Z,8.52
2019-04-04T06:25:55.065Z,8.38
2019-04-04T06:28:23.468Z,7.99
2019-04-04T06:30:54.264Z,8.09
2019-04-04T06:33:21.987Z,8.15
2019-04-04T06:36:09.636Z,8.18
2019-04-04T06:38:38.041Z,8.31
2019-04-04T06:41:28.138Z,8.14
2019-04-04T06:44:15.569Z,8.22
2019-04-04T06:47:03.212Z,8.15
2019-04-04T06:49:50.866Z,7.93
2019-04-04T06:57:28.165Z,8.49
2019-04-04T07:00:16.570Z,8.41
2019-04-04T07:02:47.285Z,8.76
2019-04-04T07:05:55.861Z,8.98
2019-04-04T07:08:45.141Z,8.78
2019-04-04T07:11:32.999Z,8.82
2019-04-04T07:14:22.124Z,9.15
2019-04-04T07:19:57.230Z,9.27
2019-04-04T07:22:44.737Z,9.62
2019-04-04T07:25:13.207Z,9.96
2019-04-04T07:27:41.617Z,10.04
2019-04-04T07:30:49.938Z,10.30
2019-04-04T07:33:21.228Z,10.55
2019-04-04T07:35:48.894Z,10.69
2019-04-04T07:38:18.765Z,10.77
2019-04-04T07:40:47.168Z,10.48
2019-04-04T07:43:34.707Z,10.51
2019-04-04T07:46:15.642Z,10.52
2019-04-04T07:48:52.523Z,10.60
2019-04-04T07:51:20.933Z,10.73
2019-04-04T07:54:08.709Z,10.71
2019-04-04T07:56:37.230Z,10.44
2019-04-04T08:01:50.639Z,10.70
2019-04-04T08:04:09.418Z,10.70
2019-04-04T08:06:37.851Z,10.67
2019-04-04T08:09:46.174Z,10.41
2019-04-04T08:12:33.823Z,10.54
2019-04-04T08:15:02.250Z,10.72
2019-04-04T08:17:30.654Z,10.80
2019-04-04T08:20:00.106Z,10.79
2019-04-04T08:22:28.552Z,10.94
2019-04-04T08:24:56.961Z,10.92
2019-04-04T08:27:25.364Z,11.02
2019-04-04T08:29:53.774Z,11.10
2019-04-04T08:32:22.174Z,10.89
2019-04-04T08:34:50.585Z,10.89
2019-04-04T08:37:18.989Z,10.93
2019-04-04T08:39:47.411Z,11.02
2019-04-04T08:42:15.883Z,11.14
2019-04-04T08:44:44.294Z,11.05
2019-04-04T08:47:12.836Z,11.06
2019-04-04T08:49:41.256Z,11.11
2019-04-04T08:52:16.504Z,10.99
2019-04-04T08:54:39.788Z,10.82
2019-04-04T08:57:08.259Z,10.35
2019-04-04T08:59:36.684Z,10.07
2019-04-04T09:02:05.089Z,10.09
2019-04-04T09:04:33.504Z,10.14
2019-04-04T09:07:01.909Z,9.87
2019-04-04T09:09:30.327Z,9.81
2019-04-04T09:11:58.709Z,9.80
2019-04-04T09:14:27.119Z,10.16
2019-04-04T09:16:55.519Z,10.55
2019-04-04T09:19:23.934Z,10.92
2019-04-04T09:21:52.329Z,11.07
2019-04-04T09:24:20.747Z,11.00
2019-04-04T09:26:49.149Z,11.09
2019-04-04T09:29:17.562Z,11.15
2019-04-04T09:31:45.961Z,11.06
2019-04-04T09:34:14.376Z,11.30
2019-04-04T09:36:42.774Z,11.00
2019-04-04T09:39:11.182Z,11.01
2019-04-04T09:41:39.597Z,10.86
2019-04-04T09:44:08.013Z,10.79
2019-04-04T09:46:36.407Z,10.91
2019-04-04T09:49:04.951Z,11.22
2019-04-04T09:51:33.353Z,11.28
2019-04-04T09:54:01.750Z,10.67
2019-04-04T09:56:30.162Z,10.83
2019-04-04T09:58:58.566Z,11.21
2019-04-04T10:01:26.984Z,11.52
2019-04-04T10:03:55.384Z,11.73
2019-04-04T10:06:23.796Z,12.01
2019-04-04T10:08:52.191Z,12.23
2019-04-04T10:11:20.601Z,12.49
2019-04-04T10:13:49.001Z,12.56
2019-04-04T10:16:17.415Z,12.70
2019-04-04T10:18:45.816Z,12.93
2019-04-04T10:21:15.056Z,13.02
2019-04-04T10:23:43.458Z,12.99
2019-04-04T10:26:11.881Z,12.88
2019-04-04T10:28:40.290Z,13.02
2019-04-04T10:31:08.698Z,13.16
2019-04-04T10:33:37.105Z,13.50
2019-04-04T10:36:05.511Z,13.70
2019-04-04T10:38:33.908Z,13.71
2019-04-04T10:41:02.323Z,13.83
2019-04-04T10:43:30.724Z,13.70
2019-04-04T10:45:59.131Z,13.56
2019-04-04T10:48:27.535Z,13.72
2019-04-04T10:50:55.941Z,13.61
2019-04-04T10:53:24.344Z,13.33
2019-04-04T10:55:52.753Z,13.15
2019-04-04T10:58:21.153Z,13.06
2019-04-04T11:00:49.575Z,13.11
2019-04-04T11:03:17.970Z,13.08
2019-04-04T11:05:46.378Z,13.12
2019-04-04T11:08:14.777Z,13.23
2019-04-04T11:10:43.198Z,13.31
2019-04-04T11:13:11.614Z,13.20
2019-04-04T11:15:40.025Z,12.99
2019-04-04T11:18:08.426Z,13.05
2019-04-04T11:20:36.837Z,12.87
2019-04-04T11:23:05.237Z,12.69
2019-04-04T11:25:33.813Z,12.47
2019-04-04T11:28:02.212Z,12.66
2019-04-04T11:30:30.627Z,12.72
2019-04-04T11:32:59.033Z,12.50
2019-04-04T11:35:27.446Z,12.43
2019-04-04T11:37:55.852Z,12.45
2019-04-04T11:40:24.262Z,12.34
2019-04-04T11:42:52.662Z,12.44
2019-04-04T11:45:21.071Z,12.31
2019-04-04T11:47:49.462Z,12.36
2019-04-04T11:50:18.075Z,12.25
2019-04-04T11:52:46.472Z,12.22
2019-04-04T11:55:14.879Z,12.30
2019-04-04T11:57:43.276Z,12.36
2019-04-04T12:00:13.588Z,12.33
2019-04-04T12:02:42.078Z,12.49
2019-04-04T12:05:10.660Z,12.69
2019-04-04T12:07:39.056Z,12.38
2019-04-04T12:10:08.275Z,11.92
2019-04-04T12:12:36.779Z,11.96
2019-04-04T12:15:08.120Z,12.07
2019-04-04T12:17:36.535Z,11.91
2019-04-04T12:20:06.474Z,11.76
2019-04-04T12:22:34.899Z,11.57
2019-04-04T12:25:03.355Z,11.71
2019-04-04T12:27:31.765Z,11.65
2019-04-04T12:30:00.180Z,11.62
2019-04-04T12:32:28.585Z,11.89
2019-04-04T12:34:56.983Z,12.03
2019-04-04T12:37:25.394Z,12.39
2019-04-04T12:39:53.805Z,12.49
2019-04-04T12:42:22.212Z,12.65
2019-04-04T12:44:50.708Z,12.91
2019-04-04T12:47:19.126Z,12.91
2019-04-04T12:49:47.528Z,12.93
2019-04-04T12:52:15.942Z,12.60
2019-04-04T12:54:44.341Z,12.53
2019-04-04T12:57:12.753Z,12.21
2019-04-04T12:59:41.153Z,12.44
2019-04-04T13:02:09.565Z,12.47
2019-04-04T13:04:37.960Z,12.28
2019-04-04T13:07:06.366Z,11.69
2019-04-04T13:09:34.766Z,11.96
2019-04-04T13:12:03.176Z,11.90
2019-04-04T13:14:31.577Z,11.83
2019-04-04T13:16:59.989Z,12.02
2019-04-04T13:19:28.384Z,12.01
2019-04-04T13:21:56.796Z,11.89
2019-04-04T13:24:25.194Z,12.09
2019-04-04T13:26:53.602Z,11.77
2019-04-04T13:29:22.000Z,11.64
2019-04-04T13:31:50.410Z,11.79
2019-04-04T13:34:18.816Z,11.65
2019-04-04T13:36:47.220Z,11.63
2019-04-04T13:39:15.629Z,11.68
2019-04-04T13:41:44.031Z,11.71
2019-04-04T13:44:12.447Z,11.76
2019-04-04T13:46:40.851Z,11.84
2019-04-04T13:49:09.642Z,11.72
2019-04-04T13:51:38.020Z,11.57
2019-04-04T13:54:06.427Z,11.40
2019-04-04T13:56:35.076Z,11.26
2019-04-04T13:59:05.951Z,11.12
2019-04-04T14:01:33.597Z,11.38
2019-04-04T14:04:02.007Z,11.51
2019-04-04T14:06:30.411Z,11.51
2019-04-04T14:08:58.821Z,11.47
2019-04-04T14:11:27.461Z,11.43
2019-04-04T14:13:58.693Z,11.29
2019-04-04T14:16:26.002Z,11.34
2019-04-04T14:18:54.412Z,11.49
2019-04-04T14:21:22.811Z,11.52
2019-04-04T14:23:52.986Z,11.37
2019-04-04T14:26:21.768Z,11.17
2019-04-04T14:28:50.182Z,11.34
2019-04-04T14:31:18.590Z,11.46
2019-04-04T14:33:46.996Z,11.52
2019-04-04T14:36:15.400Z,11.58
2019-04-04T14:38:43.808Z,11.64
2019-04-04T14:41:12.285Z,11.85
2019-04-04T14:43:40.667Z,11.83
2019-04-04T14:46:09.063Z,11.82
2019-04-04T14:48:37.476Z,11.78
2019-04-04T14:51:05.873Z,11.61
2019-04-04T14:53:34.279Z,11.72
2019-04-04T14:56:02.685Z,11.69
2019-04-04T14:58:31.192Z,11.67
2019-04-04T15:00:59.592Z,11.83
2019-04-04T15:03:28.000Z,11.75
2019-04-04T15:05:56.456Z,11.57
2019-04-04T15:08:24.867Z,11.61
2019-04-04T15:10:53.267Z,11.74
2019-04-04T15:13:21.704Z,12.00
2019-04-04T15:16:12.747Z,12.19
2019-04-04T15:18:41.147Z,12.37
2019-04-04T15:21:10.319Z,12.50
2019-04-04T15:23:38.779Z,12.69
2019-04-04T15:26:09.620Z,12.91
2019-04-04T15:28:37.392Z,13.07
2019-04-04T15:31:05.978Z,13.23
2019-04-04T15:33:34.548Z,13.25
2019-04-04T15:36:02.965Z,13.20
2019-04-04T15:38:31.361Z,13.35
2019-04-04T15:40:59.763Z,13.48
2019-04-04T15:43:28.295Z,13.51
2019-04-04T15:45:56.728Z,13.42
2019-04-04T15:48:25.139Z,13.38
2019-04-04T15:50:53.589Z,13.17
2019-04-04T15:53:22.002Z,13.16
2019-04-04T15:55:50.408Z,13.20
2019-04-04T15:58:18.817Z,13.04
2019-04-04T16:00:47.318Z,12.87
2019-04-04T16:03:15.736Z,12.85
2019-04-04T16:05:44.180Z,12.99
2019-04-04T16:08:12.596Z,13.06
2019-04-04T16:10:40.997Z,13.18
2019-04-04T16:13:09.399Z,13.12
2019-04-04T16:15:37.811Z,13.18
2019-04-04T16:18:06.228Z,12.63
2019-04-04T16:20:34.670Z,12.00
2019-04-04T16:23:03.082Z,11.83
2019-04-04T16:25:31.530Z,12.02
2019-04-04T16:27:59.933Z,12.13
2019-04-04T16:30:28.341Z,12.33
2019-04-04T16:32:56.854Z,12.42
2019-04-04T16:35:25.267Z,12.60
2019-04-04T16:37:53.715Z,12.72
2019-04-04T16:40:22.459Z,12.71
2019-04-04T16:42:50.859Z,12.74
2019-04-04T16:45:19.278Z,12.78
2019-04-04T16:47:47.674Z,12.76
2019-04-04T16:50:16.421Z,12.85
2019-04-04T16:52:44.825Z,13.04
2019-04-04T16:55:13.771Z,13.13
2019-04-04T16:57:43.533Z,13.24
2019-04-04T17:00:13.614Z,13.15
2019-04-04T17:02:42.022Z,13.28
2019-04-04T17:05:11.328Z,13.29
2019-04-04T17:07:39.849Z,13.14
2019-04-04T17:10:08.992Z,12.80
2019-04-04T17:12:37.398Z,12.54
2019-04-04T17:15:07.541Z,12.46
2019-04-04T17:17:35.979Z,12.31
2019-04-04T17:20:06.599Z,12.38
2019-04-04T17:22:35.011Z,12.36
2019-04-04T17:25:03.485Z,12.29
2019-04-04T17:27:31.891Z,12.26
2019-04-04T17:30:00.385Z,12.13
2019-04-04T17:32:28.806Z,12.05
2019-04-04T17:34:57.207Z,11.77
2019-04-04T17:37:25.686Z,11.47
2019-04-04T17:39:54.608Z,11.23
2019-04-04T17:42:30.754Z,11.26
2019-04-04T17:44:53.638Z,11.23
2019-04-04T17:47:22.564Z,11.18
2019-04-04T17:49:51.496Z,11.03
2019-04-04T17:52:19.851Z,11.08
2019-04-04T17:54:48.646Z,11.09
2019-04-04T17:57:18.184Z,10.73
2019-04-04T17:59:46.597Z,10.93
2019-04-04T18:02:15.005Z,10.81
2019-04-04T18:04:48.580Z,10.88
2019-04-04T18:07:13.567Z,10.92
2019-04-04T18:09:41.982Z,10.99
2019-04-04T18:12:10.380Z,11.11
2019-04-04T18:14:38.789Z,10.94
2019-04-04T18:17:07.190Z,10.66
2019-04-04T18:19:35.612Z,10.83
2019-04-04T18:22:04.200Z,10.88
2019-04-04T18:24:32.587Z,10.92
2019-04-04T18:27:01.262Z,10.89
2019-04-04T18:29:29.748Z,11.02
2019-04-04T18:31:58.170Z,10.81
2019-04-04T18:34:26.884Z,10.72
2019-04-04T18:36:55.362Z,10.54
2019-04-04T18:39:26.436Z,10.53
2019-04-04T18:41:53.893Z,10.59
2019-04-04T18:44:22.300Z,10.35
2019-04-04T18:46:50.719Z,10.35
2019-04-04T18:49:19.133Z,10.39
2019-04-04T18:51:47.532Z,10.54
2019-04-04T18:54:15.939Z,10.35
2019-04-04T18:56:44.349Z,10.35
2019-04-04T18:59:12.744Z,10.35
2019-04-04T19:01:41.159Z,10.13
2019-04-04T19:04:09.558Z,9.91
2019-04-04T19:06:38.040Z,9.79
2019-04-04T19:09:14.969Z,9.74
2019-04-04T19:11:40.889Z,9.50
2019-04-04T19:14:09.286Z,9.51
2019-04-04T19:16:37.733Z,9.29
2019-04-04T19:19:06.131Z,9.14
2019-04-04T19:21:34.533Z,9.09
2019-04-04T19:24:02.938Z,9.08
2019-04-04T19:26:31.458Z,9.12
2019-04-04T19:28:59.852Z,9.09
2019-04-04T19:31:28.435Z,9.06
2019-04-04T19:33:56.838Z,9.20
2019-04-04T19:36:25.254Z,9.27
2019-04-04T19:38:53.661Z,9.39
2019-04-04T19:41:22.070Z,9.50
2019-04-04T19:43:50.472Z,9.51
2019-04-04T19:46:18.876Z,9.50
2019-04-04T19:48:48.472Z,9.38
2019-04-04T19:51:16.858Z,9.49
2019-04-04T19:53:45.253Z,9.55
2019-04-04T19:56:13.673Z,9.63
2019-04-04T19:58:42.073Z,9.46
2019-04-04T20:01:11.052Z,9.39
2019-04-04T20:03:39.451Z,9.43
2019-04-04T20:06:07.871Z,9.35
2019-04-04T20:08:36.334Z,9.51
2019-04-04T20:11:04.919Z,9.70
2019-04-04T20:13:33.550Z,9.81
2019-04-04T20:18:35.685Z,9.85
2019-04-04T20:21:04.133Z,9.75
2019-04-04T20:23:51.717Z,9.84
2019-04-04T20:26:20.170Z,10.00
2019-04-04T20:31:43.025Z,10.05
2019-04-04T20:34:11.420Z,10.02
2019-04-04T20:36:59.072Z,10.12
2019-04-04T20:39:46.722Z,10.01
2019-04-04T20:42:34.384Z,10.02
2019-04-04T20:45:02.791Z,9.83
2019-04-04T20:47:50.442Z,9.86
2019-04-04T20:53:06.358Z,9.88
2019-04-04T20:55:53.891Z,9.94
2019-04-04T20:58:22.303Z,9.85
2019-04-04T21:01:09.814Z,9.79
2019-04-04T21:03:38.223Z,9.91
2019-04-04T21:06:06.629Z,9.84
2019-04-04T21:08:35.035Z,9.95
2019-04-04T21:13:56.299Z,10.08
2019-04-04T21:16:43.223Z,10.15
2019-04-04T21:19:11.684Z,10.19
2019-04-04T21:24:14.415Z,10.08
2019-04-04T21:27:01.972Z,10.24
2019-04-04T21:32:17.934Z,10.23
2019-04-04T21:34:46.339Z,10.14
2019-04-04T21:37:33.879Z,10.17
2019-04-04T21:40:02.293Z,10.10
2019-04-04T21:42:49.947Z,9.95
2019-04-04T21:45:18.345Z,10.14
2019-04-04T21:48:05.879Z,10.14
2019-04-04T21:53:21.729Z,9.78
2019-04-04T21:55:50.134Z,9.95
2019-04-04T21:58:18.561Z,9.94
2019-04-04T22:01:06.204Z,9.75
2019-04-04T22:03:53.855Z,9.85
2019-04-04T22:06:22.254Z,9.79
2019-04-04T22:09:09.784Z,9.70
2019-04-04T22:11:57.498Z,9.81
2019-04-04T22:14:25.898Z,9.77
2019-04-04T22:16:54.297Z,9.73
2019-04-04T22:19:41.960Z,9.73
2019-04-04T22:22:29.481Z,9.76
2019-04-04T22:25:17.127Z,9.53
2019-04-04T22:28:04.777Z,9.51
2019-04-04T22:30:33.180Z,9.39
2019-04-04T22:33:20.829Z,9.50
2019-04-04T22:35:49.226Z,9.66
2019-04-04T22:41:32.782Z,9.63
2019-04-04T22:44:19.350Z,9.75
2019-04-04T22:49:35.200Z,9.90
2019-04-04T22:52:03.612Z,9.83
2019-04-04T22:54:51.268Z,9.95
2019-04-04T22:57:38.935Z,9.81
2019-04-04T23:00:47.246Z,9.72
2019-04-04T23:06:13.844Z,9.52
2019-04-04T23:08:42.251Z,9.48
2019-04-04T23:11:29.772Z,9.57
2019-04-04T23:14:17.429Z,9.64
2019-04-04T23:17:05.081Z,9.35
2019-04-04T23:19:52.602Z,9.40
2019-04-04T23:22:52.117Z,9.51
2019-04-04T23:25:50.404Z,9.69
2019-04-04T23:28:18.814Z,9.77
2019-04-04T23:31:06.330Z,9.74
2019-04-04T23:33:53.853Z,9.66
2019-04-04T23:36:41.494Z,9.58
2019-04-04T23:39:09.905Z,9.57
2019-04-04T23:44:45.087Z,9.41
2019-04-04T23:47:42.603Z,9.57
2019-04-04T23:52:57.251Z,9.53
2019-04-04T23:58:18.761Z,9.59
